createdAt,value
2023-02-04T00:00:11.153Z,3.63
2023-02-04T00:03:12.985Z,4.67
2023-02-04T00:06:14.355Z,3.83
2023-02-04T00:09:16.393Z,3.37
2023-02-04T00:12:17.799Z,3.63
2023-02-04T00:15:19.195Z,2.27
2023-02-04T00:18:22.084Z,2.47
2023-02-04T00:21:23.576Z,3.03
2023-02-04T00:24:25.051Z,4.53
2023-02-04T00:27:26.492Z,3.40
2023-02-04T00:30:28.182Z,2.20
2023-02-04T00:33:29.757Z,1.83
2023-02-04T00:36:31.152Z,3.10
2023-02-04T00:39:32.658Z,2.33
2023-02-04T00:42:34.029Z,1.33
2023-02-04T00:45:35.445Z,3.00
2023-02-04T00:48:36.949Z,3.20
2023-02-04T00:51:40.074Z,2.63
2023-02-04T00:54:41.477Z,2.97
2023-02-04T00:57:43.000Z,3.50
2023-02-04T01:00:44.539Z,1.80
2023-02-04T01:03:45.942Z,2.87
2023-02-04T01:06:47.329Z,2.07
2023-02-04T01:09:48.755Z,3.67
2023-02-04T01:12:50.145Z,1.77
2023-02-04T01:15:52.702Z,3.13
2023-02-04T01:18:55.840Z,3.03
2023-02-04T01:21:58.962Z,3.40
2023-02-04T01:25:00.412Z,3.80
2023-02-04T01:28:15.233Z,4.97
2023-02-04T01:31:17.420Z,3.27
2023-02-04T01:34:18.887Z,5.70
2023-02-04T01:37:20.305Z,6.20
2023-02-04T01:40:21.770Z,4.30
2023-02-04T01:43:23.888Z,5.20
2023-02-04T01:46:25.424Z,2.93
2023-02-04T01:49:27.053Z,2.40
2023-02-04T01:52:35.108Z,3.43
2023-02-04T01:55:36.524Z,1.63
2023-02-04T01:58:37.978Z,1.97
2023-02-04T02:01:44.650Z,3.07
2023-02-04T02:04:46.176Z,3.30
2023-02-04T02:07:49.271Z,3.40
2023-02-04T02:10:50.715Z,1.27
2023-02-04T02:13:52.619Z,1.87
2023-02-04T02:16:54.097Z,1.67
2023-02-04T02:19:55.662Z,3.90
2023-02-04T02:23:26.900Z,2.63
2023-02-04T02:26:28.639Z,3.30
2023-02-04T02:29:30.238Z,2.33
2023-02-04T02:32:32.122Z,3.40
2023-02-04T02:35:34.047Z,3.03
2023-02-04T02:38:35.662Z,4.73
2023-02-04T02:41:37.215Z,5.23
2023-02-04T02:44:38.718Z,4.47
2023-02-04T02:47:40.228Z,5.40
2023-02-04T02:50:42.657Z,4.33
2023-02-04T02:53:46.910Z,5.60
2023-02-04T02:56:48.546Z,5.87
2023-02-04T02:59:50.112Z,8.90
2023-02-04T03:03:01.943Z,5.43
2023-02-04T03:06:12.475Z,6.60
2023-02-04T03:09:14.128Z,4.40
2023-02-04T03:12:15.696Z,6.03
2023-02-04T03:15:17.371Z,6.17
2023-02-04T03:18:21.402Z,3.07
2023-02-04T03:21:22.804Z,5.17
2023-02-04T03:24:24.737Z,6.63
2023-02-04T03:27:26.199Z,6.10
2023-02-04T03:30:27.867Z,7.73
2023-02-04T03:33:31.325Z,10.73
2023-02-04T03:36:32.774Z,8.57
2023-02-04T03:39:34.147Z,7.83
2023-02-04T03:42:35.619Z,9.47
2023-02-04T03:45:44.993Z,11.07
2023-02-04T03:48:47.199Z,16.53
2023-02-04T03:51:48.577Z,12.63
2023-02-04T03:54:49.965Z,12.63
2023-02-04T03:57:51.847Z,11.47
2023-02-04T04:00:53.413Z,10.83
2023-02-04T04:03:54.858Z,10.87
2023-02-04T04:06:56.310Z,9.47
2023-02-04T04:09:57.738Z,13.23
2023-02-04T04:12:59.137Z,9.23
2023-02-04T04:16:00.634Z,11.07
2023-02-04T04:19:02.064Z,10.43
2023-02-04T04:22:03.472Z,7.87
2023-02-04T04:25:05.755Z,9.13
2023-02-04T04:28:07.158Z,8.33
2023-02-04T04:31:08.942Z,15.03
2023-02-04T04:34:11.080Z,8.73
2023-02-04T04:37:12.476Z,8.00
2023-02-04T04:40:14.090Z,8.93
2023-02-04T04:43:15.551Z,10.60
2023-02-04T04:46:16.949Z,8.40
2023-02-04T04:49:18.431Z,10.27
2023-02-04T04:52:19.805Z,6.67
2023-02-04T04:55:21.209Z,9.70
2023-02-04T04:58:22.594Z,9.10
2023-02-04T05:01:24.028Z,7.73
2023-02-04T05:04:25.431Z,10.50
2023-02-04T05:07:27.602Z,9.47
2023-02-04T05:10:29.212Z,9.17
2023-02-04T05:13:30.876Z,13.03
2023-02-04T05:16:32.307Z,5.83
2023-02-04T05:19:33.747Z,7.63
2023-02-04T05:22:35.120Z,7.70
2023-02-04T05:25:36.512Z,7.20
2023-02-04T05:28:37.887Z,8.63
2023-02-04T05:31:39.335Z,8.13
2023-02-04T05:34:40.833Z,8.13
2023-02-04T05:37:42.218Z,11.57
2023-02-04T05:40:43.601Z,6.33
2023-02-04T05:43:44.973Z,9.40
2023-02-04T05:46:46.506Z,10.63
2023-02-04T05:49:47.897Z,9.30
2023-02-04T05:52:49.281Z,5.57
2023-02-04T05:55:50.668Z,6.23
2023-02-04T05:58:52.062Z,7.73
2023-02-04T06:01:53.497Z,8.13
2023-02-04T06:04:55.601Z,7.70
2023-02-04T06:07:57.050Z,9.80
2023-02-04T06:10:58.443Z,6.50
2023-02-04T06:13:59.820Z,5.93
2023-02-04T06:17:01.237Z,7.37
2023-02-04T06:20:02.644Z,7.13
2023-02-04T06:23:04.178Z,9.70
2023-02-04T06:26:06.222Z,6.57
2023-02-04T06:29:07.642Z,4.37
2023-02-04T06:32:09.016Z,6.87
2023-02-04T06:35:12.924Z,7.40
2023-02-04T06:38:14.490Z,9.13
2023-02-04T06:41:15.886Z,6.17
2023-02-04T06:44:17.254Z,5.53
2023-02-04T06:47:18.854Z,8.20
2023-02-04T06:50:20.380Z,12.50
2023-02-04T06:53:21.803Z,10.60
2023-02-04T06:56:23.289Z,7.97
2023-02-04T06:59:26.045Z,7.97
2023-02-04T07:02:27.460Z,10.87
2023-02-04T07:05:28.879Z,12.17
2023-02-04T07:08:30.255Z,12.23
2023-02-04T07:11:31.664Z,10.03
2023-02-04T07:14:33.205Z,10.93
2023-02-04T07:17:34.610Z,10.97
2023-02-04T07:20:36.145Z,11.07
2023-02-04T07:23:37.581Z,7.53
2023-02-04T07:26:38.976Z,8.63
2023-02-04T07:29:40.394Z,8.47
2023-02-04T07:32:41.783Z,6.43
2023-02-04T07:35:44.262Z,5.90
2023-02-04T07:38:45.646Z,5.43
2023-02-04T07:41:47.059Z,7.80
2023-02-04T07:44:55.434Z,9.40
2023-02-04T07:47:56.810Z,8.30
2023-02-04T07:50:58.201Z,6.67
2023-02-04T07:54:00.707Z,7.57
2023-02-04T07:57:02.079Z,5.77
2023-02-04T08:00:04.742Z,9.97
2023-02-04T08:03:14.143Z,6.47
2023-02-04T08:06:15.650Z,6.87
2023-02-04T08:09:17.058Z,6.83
2023-02-04T08:12:18.475Z,6.47
2023-02-04T08:15:19.889Z,9.23
2023-02-04T08:18:21.283Z,4.37
2023-02-04T08:21:22.707Z,5.27
2023-02-04T08:24:24.071Z,7.50
2023-02-04T08:27:25.558Z,11.73
2023-02-04T08:30:26.981Z,10.70
2023-02-04T08:33:28.340Z,9.10
2023-02-04T08:36:29.892Z,8.33
2023-02-04T08:39:32.783Z,10.73
2023-02-04T08:42:34.793Z,13.10
2023-02-04T08:45:36.312Z,10.00
2023-02-04T08:48:37.711Z,11.33
2023-02-04T08:51:39.108Z,15.97
2023-02-04T08:54:40.605Z,11.87
2023-02-04T08:57:42.011Z,12.10
2023-02-04T09:00:44.014Z,12.00
2023-02-04T09:03:45.579Z,12.97
2023-02-04T09:06:47.516Z,11.23
2023-02-04T09:09:49.184Z,14.47
2023-02-04T09:12:55.836Z,12.40
2023-02-04T09:15:57.339Z,13.50
2023-02-04T09:18:59.143Z,14.30
2023-02-04T09:22:00.655Z,16.13
2023-02-04T09:25:02.055Z,15.10
2023-02-04T09:28:03.672Z,15.37
2023-02-04T09:31:06.428Z,17.60
2023-02-04T09:34:08.291Z,12.73
2023-02-04T09:37:09.666Z,16.77
2023-02-04T09:40:17.279Z,17.40
2023-02-04T09:43:26.152Z,16.80
2023-02-04T09:46:31.148Z,20.40
2023-02-04T09:49:33.010Z,19.43
2023-02-04T09:52:34.420Z,12.97
2023-02-04T09:55:39.043Z,17.27
2023-02-04T09:58:41.405Z,13.13
2023-02-04T10:01:43.058Z,15.67
2023-02-04T10:04:44.547Z,16.20
2023-02-04T10:07:48.892Z,15.37
2023-02-04T10:10:50.379Z,18.33
2023-02-04T10:13:54.232Z,18.00
2023-02-04T10:16:59.480Z,16.50
2023-02-04T10:20:01.237Z,15.83
2023-02-04T10:23:02.656Z,18.60
2023-02-04T10:26:04.467Z,16.77
2023-02-04T10:29:09.780Z,16.23
2023-02-04T10:32:32.069Z,17.73
2023-02-04T10:35:45.915Z,12.37
2023-02-04T10:38:59.665Z,18.80
2023-02-04T10:42:01.497Z,17.10
2023-02-04T10:45:03.695Z,15.27
2023-02-04T10:48:05.504Z,18.93
2023-02-04T10:51:12.688Z,15.70
2023-02-04T10:54:33.711Z,11.40
2023-02-04T10:57:39.106Z,16.87
2023-02-04T11:00:40.995Z,14.67
2023-02-04T11:03:43.497Z,17.13
2023-02-04T11:06:44.972Z,12.27
2023-02-04T11:09:48.633Z,11.03
2023-02-04T11:12:53.244Z,13.87
2023-02-04T11:16:11.954Z,16.03
2023-02-04T11:19:14.539Z,15.67
2023-02-04T11:22:41.989Z,12.80
2023-02-04T11:25:43.756Z,13.63
2023-02-04T11:28:45.067Z,15.00
2023-02-04T11:31:49.544Z,12.70
2023-02-04T11:34:52.864Z,17.20
2023-02-04T11:37:56.028Z,17.20
2023-02-04T11:40:58.085Z,13.07
2023-02-04T11:43:59.544Z,14.87
2023-02-04T11:47:02.787Z,17.97
2023-02-04T11:50:14.051Z,16.83
2023-02-04T11:53:15.606Z,17.67
2023-02-04T11:56:21.335Z,14.80
2023-02-04T11:59:22.723Z,10.10
2023-02-04T12:02:28.105Z,11.00
2023-02-04T12:05:40.815Z,13.80
2023-02-04T12:08:42.215Z,11.43
2023-02-04T12:11:54.530Z,8.43
2023-02-04T12:15:13.586Z,15.83
2023-02-04T12:18:16.655Z,9.13
2023-02-04T12:21:19.306Z,11.47
2023-02-04T12:24:21.041Z,15.60
2023-02-04T12:27:22.957Z,10.40
2023-02-04T12:30:26.211Z,14.53
2023-02-04T12:33:27.648Z,14.23
2023-02-04T12:36:29.702Z,9.60
2023-02-04T12:39:31.997Z,10.77
2023-02-04T12:42:33.428Z,9.03
2023-02-04T12:45:35.002Z,11.03
2023-02-04T12:48:40.844Z,9.17
2023-02-04T12:51:42.304Z,10.37
2023-02-04T12:54:43.915Z,12.17
2023-02-04T12:57:45.470Z,11.07
2023-02-04T13:00:46.854Z,7.37
2023-02-04T13:03:48.276Z,10.13
2023-02-04T13:06:50.021Z,6.93
2023-02-04T13:09:52.236Z,9.20
2023-02-04T13:12:53.643Z,6.73
2023-02-04T13:15:55.040Z,6.87
2023-02-04T13:18:56.495Z,5.73
2023-02-04T13:21:58.769Z,6.20
2023-02-04T13:25:00.395Z,10.43
2023-02-04T13:28:02.504Z,14.70
2023-02-04T13:31:04.584Z,9.77
2023-02-04T13:34:06.134Z,11.43
2023-02-04T13:37:07.525Z,11.80
2023-02-04T13:40:11.060Z,9.73
2023-02-04T13:43:12.460Z,10.20
2023-02-04T13:46:14.130Z,10.03
2023-02-04T13:49:15.713Z,8.67
2023-02-04T13:52:18.347Z,11.83
2023-02-04T13:55:19.750Z,12.97
2023-02-04T13:58:21.130Z,8.10
2023-02-04T14:01:22.598Z,9.13
2023-02-04T14:04:24.006Z,6.20
2023-02-04T14:07:25.617Z,12.37
2023-02-04T14:10:27.061Z,10.47
2023-02-04T14:13:28.447Z,9.53
2023-02-04T14:16:29.867Z,10.93
2023-02-04T14:19:31.281Z,7.77
2023-02-04T14:22:32.657Z,8.57
2023-02-04T14:25:34.107Z,10.27
2023-02-04T14:28:35.644Z,8.77
2023-02-04T14:31:37.468Z,10.30
2023-02-04T14:34:39.040Z,14.10
2023-02-04T14:37:40.639Z,9.50
2023-02-04T14:40:44.847Z,9.83
2023-02-04T14:43:47.785Z,7.57
2023-02-04T14:46:49.343Z,9.83
2023-02-04T14:49:50.726Z,9.43
2023-02-04T14:52:52.365Z,6.83
2023-02-04T14:55:53.807Z,6.37
2023-02-04T14:58:55.277Z,11.40
2023-02-04T15:01:56.721Z,7.63
2023-02-04T15:04:58.099Z,8.03
2023-02-04T15:08:00.146Z,12.17
2023-02-04T15:11:01.591Z,8.87
2023-02-04T15:14:03.776Z,8.73
2023-02-04T15:17:05.329Z,6.37
2023-02-04T15:20:08.461Z,8.40
2023-02-04T15:23:12.983Z,7.30
2023-02-04T15:26:14.580Z,12.47
2023-02-04T15:29:16.001Z,8.70
2023-02-04T15:32:17.386Z,7.97
2023-02-04T15:35:19.451Z,8.37
2023-02-04T15:38:20.873Z,11.03
2023-02-04T15:41:23.363Z,9.10
2023-02-04T15:44:26.565Z,7.43
2023-02-04T15:47:28.079Z,8.50
2023-02-04T15:50:31.227Z,5.53
2023-02-04T15:53:34.663Z,8.17
2023-02-04T15:56:36.043Z,12.83
2023-02-04T15:59:37.477Z,12.40
2023-02-04T16:02:38.875Z,9.43
2023-02-04T16:05:40.290Z,6.17
2023-02-04T16:08:41.674Z,6.87
2023-02-04T16:11:43.064Z,8.70
2023-02-04T16:14:44.499Z,10.67
2023-02-04T16:17:45.930Z,11.67
2023-02-04T16:20:47.318Z,13.03
2023-02-04T16:23:48.696Z,11.30
2023-02-04T16:26:50.157Z,10.03
2023-02-04T16:29:51.536Z,10.77
2023-02-04T16:32:52.940Z,9.63
2023-02-04T16:35:59.366Z,9.40
2023-02-04T16:39:02.739Z,8.80
2023-02-04T16:42:08.795Z,10.53
2023-02-04T16:45:10.650Z,6.70
2023-02-04T16:48:12.035Z,8.27
2023-02-04T16:51:13.434Z,7.60
2023-02-04T16:54:14.798Z,11.43
2023-02-04T16:57:16.787Z,13.17
2023-02-04T17:00:18.567Z,10.47
2023-02-04T17:03:20.156Z,12.33
2023-02-04T17:06:21.559Z,17.00
2023-02-04T17:09:23.001Z,8.67
2023-02-04T17:12:24.554Z,11.10
2023-02-04T17:15:26.012Z,11.60
2023-02-04T17:18:28.902Z,11.50
2023-02-04T17:21:30.658Z,14.37
2023-02-04T17:24:32.021Z,8.03
2023-02-04T17:27:33.406Z,13.20
2023-02-04T17:30:34.838Z,9.10
2023-02-04T17:33:36.280Z,7.17
2023-02-04T17:36:38.537Z,7.20
2023-02-04T17:39:39.954Z,5.57
2023-02-04T17:42:41.404Z,6.83
2023-02-04T17:45:42.859Z,6.93
2023-02-04T17:48:44.707Z,6.40
2023-02-04T17:51:46.114Z,5.17
2023-02-04T17:54:47.520Z,4.27
2023-02-04T17:57:49.391Z,7.00
2023-02-04T18:00:52.086Z,7.03
2023-02-04T18:03:53.628Z,7.90
2023-02-04T18:06:55.168Z,7.27
2023-02-04T18:10:18.020Z,6.77
2023-02-04T18:13:23.351Z,8.63
2023-02-04T18:16:27.497Z,8.33
2023-02-04T18:19:36.834Z,6.30
2023-02-04T18:22:38.211Z,10.00
2023-02-04T18:25:39.583Z,8.17
2023-02-04T18:28:43.925Z,7.87
2023-02-04T18:31:54.463Z,7.60
2023-02-04T18:34:57.543Z,10.03
2023-02-04T18:37:59.002Z,8.20
2023-02-04T18:41:27.493Z,7.80
2023-02-04T18:44:33.282Z,6.57
2023-02-04T18:47:35.831Z,10.10
2023-02-04T18:50:37.507Z,11.47
2023-02-04T18:53:39.912Z,35.27
2023-02-04T18:56:41.354Z,15.73
2023-02-04T18:59:42.938Z,9.60
2023-02-04T19:02:51.573Z,6.27
2023-02-04T19:05:55.329Z,9.33
2023-02-04T19:09:02.417Z,8.73
2023-02-04T19:12:22.433Z,8.07
2023-02-04T19:15:39.535Z,5.40
2023-02-04T19:18:42.486Z,7.90
2023-02-04T19:21:43.872Z,6.93
2023-02-04T19:24:46.535Z,6.53
2023-02-04T19:27:54.906Z,6.83
2023-02-04T19:31:04.781Z,15.13
2023-02-04T19:34:33.743Z,9.70
2023-02-04T19:37:40.992Z,8.23
2023-02-04T19:40:43.142Z,5.07
2023-02-04T19:43:44.514Z,6.87
2023-02-04T19:46:45.949Z,5.63
2023-02-04T19:49:47.410Z,10.33
2023-02-04T19:52:52.377Z,6.13
2023-02-04T19:55:54.226Z,7.00
2023-02-04T19:58:57.744Z,6.17
2023-02-04T20:02:08.022Z,5.93
2023-02-04T20:05:17.872Z,5.37
2023-02-04T20:08:41.600Z,8.03
2023-02-04T20:12:16.031Z,7.30
2023-02-04T20:15:23.411Z,7.90
2023-02-04T20:18:28.153Z,11.03
2023-02-04T20:21:29.559Z,7.77
2023-02-04T20:24:37.708Z,11.97
2023-02-04T20:27:41.510Z,9.10
2023-02-04T20:30:43.708Z,8.63
2023-02-04T20:33:49.119Z,11.17
2023-02-04T20:36:52.161Z,11.90
2023-02-04T20:39:54.382Z,7.13
2023-02-04T20:43:12.064Z,8.67
2023-02-04T20:46:21.733Z,8.07
2023-02-04T20:49:25.760Z,10.23
2023-02-04T20:52:47.471Z,8.97
2023-02-04T20:56:03.936Z,11.43
2023-02-04T20:59:11.725Z,8.37
2023-02-04T21:02:21.955Z,6.77
2023-02-04T21:05:26.764Z,6.90
2023-02-04T21:08:33.305Z,6.50
2023-02-04T21:11:34.725Z,7.47
2023-02-04T21:14:36.297Z,6.13
2023-02-04T21:17:37.731Z,4.77
2023-02-04T21:20:39.131Z,6.33
2023-02-04T21:23:40.786Z,5.87
2023-02-04T21:26:42.548Z,6.17
2023-02-04T21:29:43.911Z,6.93
2023-02-04T21:32:45.383Z,8.07
2023-02-04T21:35:46.864Z,7.40
2023-02-04T21:38:48.293Z,5.57
2023-02-04T21:42:09.731Z,7.93
2023-02-04T21:45:11.118Z,7.30
2023-02-04T21:48:12.671Z,7.17
2023-02-04T21:51:14.893Z,5.30
2023-02-04T21:54:16.266Z,5.77
2023-02-04T21:57:17.646Z,7.40
2023-02-04T22:00:23.538Z,6.80
2023-02-04T22:03:25.006Z,5.33
2023-02-04T22:06:26.729Z,5.77
2023-02-04T22:09:28.122Z,5.80
2023-02-04T22:12:29.541Z,8.20
2023-02-04T22:15:31.163Z,6.17
2023-02-04T22:18:32.712Z,5.37
2023-02-04T22:21:36.125Z,7.57
2023-02-04T22:24:37.691Z,5.67
2023-02-04T22:27:39.470Z,6.93
2023-02-04T22:30:40.990Z,6.27
2023-02-04T22:33:42.522Z,7.30
2023-02-04T22:36:43.984Z,6.30
2023-02-04T22:39:45.363Z,7.40
2023-02-04T22:42:46.783Z,6.10
2023-02-04T22:45:48.181Z,8.17
2023-02-04T22:48:49.596Z,6.87
2023-02-04T22:51:51.003Z,5.67
2023-02-04T22:54:53.208Z,5.47
2023-02-04T22:57:54.595Z,6.47
2023-02-04T23:00:56.080Z,8.77
2023-02-04T23:03:57.684Z,15.33
2023-02-04T23:07:00.681Z,4.57
2023-02-04T23:10:02.075Z,4.30
2023-02-04T23:13:03.566Z,6.03
2023-02-04T23:16:05.284Z,4.20
2023-02-04T23:19:06.702Z,7.97
2023-02-04T23:22:09.392Z,6.43
2023-02-04T23:25:10.855Z,4.73
2023-02-04T23:28:12.884Z,4.27
2023-02-04T23:31:14.327Z,4.80
2023-02-04T23:34:15.756Z,4.67
2023-02-04T23:37:17.149Z,6.17
2023-02-04T23:40:18.589Z,4.03
2023-02-04T23:43:19.972Z,3.67
2023-02-04T23:46:21.479Z,3.40
2023-02-04T23:49:22.917Z,4.10
2023-02-04T23:52:24.316Z,3.90
2023-02-04T23:55:25.736Z,7.27
2023-02-04T23:58:27.309Z,3.67
